sensor_id;sensor_type;location;lat;lon;timestamp;temperature;humidity
10451;DHT22;5273;51.290;6.918;2023-07-24T00:00:45;18.60;99.90
10451;DHT22;5273;51.290;6.918;2023-07-24T00:03:12;18.80;99.90
10451;DHT22;5273;51.290;6.918;2023-07-24T00:05:39;18.80;99.90
10451;DHT22;5273;51.290;6.918;2023-07-24T00:08:07;18.80;99.90
10451;DHT22;5273;51.290;6.918;2023-07-24T00:10:34;18.80;99.90
10451;DHT22;5273;51.290;6.918;2023-07-24T00:13:01;18.90;99.90
10451;DHT22;5273;51.290;6.918;2023-07-24T00:15:28;18.80;99.90
10451;DHT22;5273;51.290;6.918;2023-07-24T00:17:55;18.80;99.90
10451;DHT22;5273;51.290;6.918;2023-07-24T00:20:22;18.70;99.90
10451;DHT22;5273;51.290;6.918;2023-07-24T00:22:50;18.70;99.90
10451;DHT22;5273;51.290;6.918;2023-07-24T00:25:18;18.70;99.90
10451;DHT22;5273;51.290;6.918;2023-07-24T00:27:45;18.70;99.90
10451;DHT22;5273;51.290;6.918;2023-07-24T00:30:12;18.60;99.90
10451;DHT22;5273;51.290;6.918;2023-07-24T00:32:39;18.60;99.90
10451;DHT22;5273;51.290;6.918;2023-07-24T00:35:07;18.50;99.90
10451;DHT22;5273;51.290;6.918;2023-07-24T00:37:34;18.50;99.90
10451;DHT22;5273;51.290;6.918;2023-07-24T00:40:01;18.40;99.90
10451;DHT22;5273;51.290;6.918;2023-07-24T00:42:29;18.20;99.90
10451;DHT22;5273;51.290;6.918;2023-07-24T00:44:56;18.40;99.90
10451;DHT22;5273;51.290;6.918;2023-07-24T00:47:23;18.40;99.90
10451;DHT22;5273;51.290;6.918;2023-07-24T00:49:51;18.40;99.90
10451;DHT22;5273;51.290;6.918;2023-07-24T00:52:18;18.40;99.90
10451;DHT22;5273;51.290;6.918;2023-07-24T00:54:45;18.40;99.90
10451;DHT22;5273;51.290;6.918;2023-07-24T00:57:13;18.40;99.90
10451;DHT22;5273;51.290;6.918;2023-07-24T00:59:42;18.40;99.90
10451;DHT22;5273;51.290;6.918;2023-07-24T01:02:09;18.40;99.90
10451;DHT22;5273;51.290;6.918;2023-07-24T01:04:37;18.40;99.90
10451;DHT22;5273;51.290;6.918;2023-07-24T01:07:04;18.30;99.90
10451;DHT22;5273;51.290;6.918;2023-07-24T01:09:31;18.30;99.90
10451;DHT22;5273;51.290;6.918;2023-07-24T01:12:01;18.30;99.90
10451;DHT22;5273;51.290;6.918;2023-07-24T01:14:34;18.20;99.90
10451;DHT22;5273;51.290;6.918;2023-07-24T01:17:06;18.30;99.90
10451;DHT22;5273;51.290;6.918;2023-07-24T01:19:36;18.30;99.90
10451;DHT22;5273;51.290;6.918;2023-07-24T01:22:12;18.20;99.90
10451;DHT22;5273;51.290;6.918;2023-07-24T01:24:52;18.20;99.90
10451;DHT22;5273;51.290;6.918;2023-07-24T01:27:26;18.20;99.90
10451;DHT22;5273;51.290;6.918;2023-07-24T01:29:53;18.30;99.90
10451;DHT22;5273;51.290;6.918;2023-07-24T01:32:20;18.30;99.90
10451;DHT22;5273;51.290;6.918;2023-07-24T01:34:47;18.20;99.90
10451;DHT22;5273;51.290;6.918;2023-07-24T01:37:15;18.20;99.90
10451;DHT22;5273;51.290;6.918;2023-07-24T01:39:44;18.20;99.90
10451;DHT22;5273;51.290;6.918;2023-07-24T01:42:11;18.20;99.90
10451;DHT22;5273;51.290;6.918;2023-07-24T01:44:39;18.20;99.90
10451;DHT22;5273;51.290;6.918;2023-07-24T01:47:06;18.60;99.90
10451;DHT22;5273;51.290;6.918;2023-07-24T01:49:33;18.20;99.90
10451;DHT22;5273;51.290;6.918;2023-07-24T01:52:00;18.20;99.90
10451;DHT22;5273;51.290;6.918;2023-07-24T01:54:27;18.20;99.90
10451;DHT22;5273;51.290;6.918;2023-07-24T01:56:54;18.20;99.90
10451;DHT22;5273;51.290;6.918;2023-07-24T01:59:21;18.10;99.90
10451;DHT22;5273;51.290;6.918;2023-07-24T02:01:49;18.10;99.90
10451;DHT22;5273;51.290;6.918;2023-07-24T02:04:16;18.10;99.90
10451;DHT22;5273;51.290;6.918;2023-07-24T02:06:42;18.10;99.90
10451;DHT22;5273;51.290;6.918;2023-07-24T02:09:10;18.10;99.90
10451;DHT22;5273;51.290;6.918;2023-07-24T02:11:37;18.10;99.90
10451;DHT22;5273;51.290;6.918;2023-07-24T02:14:04;18.10;99.90
10451;DHT22;5273;51.290;6.918;2023-07-24T02:16:31;18.00;99.90
10451;DHT22;5273;51.290;6.918;2023-07-24T02:18:59;18.10;99.90
10451;DHT22;5273;51.290;6.918;2023-07-24T02:21:26;18.10;99.90
10451;DHT22;5273;51.290;6.918;2023-07-24T02:23:53;18.10;99.90
10451;DHT22;5273;51.290;6.918;2023-07-24T02:26:20;18.10;99.90
10451;DHT22;5273;51.290;6.918;2023-07-24T02:28:46;18.10;99.90
10451;DHT22;5273;51.290;6.918;2023-07-24T02:31:13;18.20;99.90
10451;DHT22;5273;51.290;6.918;2023-07-24T02:33:40;18.20;99.90
10451;DHT22;5273;51.290;6.918;2023-07-24T02:36:08;18.20;99.90
10451;DHT22;5273;51.290;6.918;2023-07-24T02:38:35;18.20;99.90
10451;DHT22;5273;51.290;6.918;2023-07-24T02:41:02;18.20;99.90
10451;DHT22;5273;51.290;6.918;2023-07-24T02:43:29;18.20;99.90
10451;DHT22;5273;51.290;6.918;2023-07-24T02:46:00;18.20;99.90
10451;DHT22;5273;51.290;6.918;2023-07-24T02:48:27;18.20;99.90
10451;DHT22;5273;51.290;6.918;2023-07-24T02:50:54;18.30;99.90
10451;DHT22;5273;51.290;6.918;2023-07-24T02:53:22;18.20;99.90
10451;DHT22;5273;51.290;6.918;2023-07-24T02:55:49;18.20;99.90
10451;DHT22;5273;51.290;6.918;2023-07-24T02:58:16;18.20;99.90
10451;DHT22;5273;51.290;6.918;2023-07-24T03:00:43;18.20;99.90
10451;DHT22;5273;51.290;6.918;2023-07-24T03:03:10;18.10;99.90
10451;DHT22;5273;51.290;6.918;2023-07-24T03:05:37;17.90;99.90
10451;DHT22;5273;51.290;6.918;2023-07-24T03:08:04;18.00;99.90
10451;DHT22;5273;51.290;6.918;2023-07-24T03:10:32;17.80;99.90
10451;DHT22;5273;51.290;6.918;2023-07-24T03:12:59;17.70;99.90
10451;DHT22;5273;51.290;6.918;2023-07-24T03:15:26;17.60;99.90
10451;DHT22;5273;51.290;6.918;2023-07-24T03:17:52;17.60;99.90
10451;DHT22;5273;51.290;6.918;2023-07-24T03:20:20;17.60;99.90
10451;DHT22;5273;51.290;6.918;2023-07-24T03:22:47;17.60;99.90
10451;DHT22;5273;51.290;6.918;2023-07-24T03:25:14;17.50;99.90
10451;DHT22;5273;51.290;6.918;2023-07-24T03:27:42;17.60;99.90
10451;DHT22;5273;51.290;6.918;2023-07-24T03:30:10;17.60;99.90
10451;DHT22;5273;51.290;6.918;2023-07-24T03:32:37;17.50;99.90
10451;DHT22;5273;51.290;6.918;2023-07-24T03:35:05;17.50;99.90
10451;DHT22;5273;51.290;6.918;2023-07-24T03:37:32;17.50;99.90
10451;DHT22;5273;51.290;6.918;2023-07-24T03:39:59;17.50;99.90
10451;DHT22;5273;51.290;6.918;2023-07-24T03:42:27;17.50;99.90
10451;DHT22;5273;51.290;6.918;2023-07-24T03:44:56;17.50;99.90
10451;DHT22;5273;51.290;6.918;2023-07-24T03:47:23;17.50;99.90
10451;DHT22;5273;51.290;6.918;2023-07-24T03:49:50;17.50;99.90
10451;DHT22;5273;51.290;6.918;2023-07-24T03:52:17;17.50;99.90
10451;DHT22;5273;51.290;6.918;2023-07-24T03:54:44;17.50;99.90
10451;DHT22;5273;51.290;6.918;2023-07-24T03:57:11;17.50;99.90
10451;DHT22;5273;51.290;6.918;2023-07-24T03:59:38;17.40;99.90
10451;DHT22;5273;51.290;6.918;2023-07-24T04:02:06;17.50;99.90
10451;DHT22;5273;51.290;6.918;2023-07-24T04:04:33;17.40;99.90
10451;DHT22;5273;51.290;6.918;2023-07-24T04:07:00;17.40;99.90
10451;DHT22;5273;51.290;6.918;2023-07-24T04:09:27;17.60;99.90
10451;DHT22;5273;51.290;6.918;2023-07-24T04:11:54;17.50;99.90
10451;DHT22;5273;51.290;6.918;2023-07-24T04:14:21;17.50;99.90
10451;DHT22;5273;51.290;6.918;2023-07-24T04:16:47;17.60;99.90
10451;DHT22;5273;51.290;6.918;2023-07-24T04:19:16;17.40;99.90
10451;DHT22;5273;51.290;6.918;2023-07-24T04:21:42;17.50;99.90
10451;DHT22;5273;51.290;6.918;2023-07-24T04:24:09;17.60;99.90
10451;DHT22;5273;51.290;6.918;2023-07-24T04:26:36;17.50;99.90
10451;DHT22;5273;51.290;6.918;2023-07-24T04:29:05;17.50;99.90
10451;DHT22;5273;51.290;6.918;2023-07-24T04:31:31;17.60;99.90
10451;DHT22;5273;51.290;6.918;2023-07-24T04:33:58;17.50;99.90
10451;DHT22;5273;51.290;6.918;2023-07-24T04:36:26;17.60;99.90
10451;DHT22;5273;51.290;6.918;2023-07-24T04:38:53;17.60;99.90
10451;DHT22;5273;51.290;6.918;2023-07-24T04:41:20;17.60;99.90
10451;DHT22;5273;51.290;6.918;2023-07-24T04:43:48;17.60;99.90
10451;DHT22;5273;51.290;6.918;2023-07-24T04:46:15;17.60;99.90
10451;DHT22;5273;51.290;6.918;2023-07-24T04:48:41;17.60;99.90
10451;DHT22;5273;51.290;6.918;2023-07-24T04:51:08;17.60;99.90
10451;DHT22;5273;51.290;6.918;2023-07-24T04:53:36;17.60;99.90
10451;DHT22;5273;51.290;6.918;2023-07-24T04:56:03;17.60;99.90
10451;DHT22;5273;51.290;6.918;2023-07-24T04:58:30;17.70;99.90
10451;DHT22;5273;51.290;6.918;2023-07-24T05:01:01;17.60;99.90
10451;DHT22;5273;51.290;6.918;2023-07-24T05:03:28;17.70;99.90
10451;DHT22;5273;51.290;6.918;2023-07-24T05:05:55;17.70;99.90
10451;DHT22;5273;51.290;6.918;2023-07-24T05:08:22;17.70;99.90
10451;DHT22;5273;51.290;6.918;2023-07-24T05:10:55;17.70;99.90
10451;DHT22;5273;51.290;6.918;2023-07-24T05:13:22;17.70;99.90
10451;DHT22;5273;51.290;6.918;2023-07-24T05:15:49;17.70;99.90
10451;DHT22;5273;51.290;6.918;2023-07-24T05:18:16;17.80;99.90
10451;DHT22;5273;51.290;6.918;2023-07-24T05:20:44;17.90;99.90
10451;DHT22;5273;51.290;6.918;2023-07-24T05:23:12;17.90;99.90
10451;DHT22;5273;51.290;6.918;2023-07-24T05:25:38;18.20;99.90
10451;DHT22;5273;51.290;6.918;2023-07-24T05:28:07;18.00;99.90
10451;DHT22;5273;51.290;6.918;2023-07-24T05:30:34;18.00;99.90
10451;DHT22;5273;51.290;6.918;2023-07-24T05:33:01;18.10;99.90
10451;DHT22;5273;51.290;6.918;2023-07-24T05:35:28;18.10;99.90
10451;DHT22;5273;51.290;6.918;2023-07-24T05:37:54;18.10;99.90
10451;DHT22;5273;51.290;6.918;2023-07-24T05:40:21;19.00;99.90
10451;DHT22;5273;51.290;6.918;2023-07-24T05:42:48;18.20;99.90
10451;DHT22;5273;51.290;6.918;2023-07-24T05:45:17;18.20;99.90
10451;DHT22;5273;51.290;6.918;2023-07-24T05:47:43;18.10;99.90
10451;DHT22;5273;51.290;6.918;2023-07-24T05:50:10;18.20;99.90
10451;DHT22;5273;51.290;6.918;2023-07-24T05:52:38;18.20;99.90
10451;DHT22;5273;51.290;6.918;2023-07-24T05:55:06;18.20;99.90
10451;DHT22;5273;51.290;6.918;2023-07-24T05:57:33;18.60;99.90
10451;DHT22;5273;51.290;6.918;2023-07-24T06:00:00;18.30;99.90
10451;DHT22;5273;51.290;6.918;2023-07-24T06:02:28;18.30;99.90
10451;DHT22;5273;51.290;6.918;2023-07-24T06:04:55;18.40;99.90
10451;DHT22;5273;51.290;6.918;2023-07-24T06:07:22;18.50;99.90
10451;DHT22;5273;51.290;6.918;2023-07-24T06:09:49;18.60;99.90
10451;DHT22;5273;51.290;6.918;2023-07-24T06:12:16;18.60;99.90
10451;DHT22;5273;51.290;6.918;2023-07-24T06:14:43;18.60;99.90
10451;DHT22;5273;51.290;6.918;2023-07-24T06:17:09;18.70;99.90
10451;DHT22;5273;51.290;6.918;2023-07-24T06:19:38;18.80;99.90
10451;DHT22;5273;51.290;6.918;2023-07-24T06:22:05;18.90;99.90
10451;DHT22;5273;51.290;6.918;2023-07-24T06:24:31;18.30;99.90
10451;DHT22;5273;51.290;6.918;2023-07-24T06:26:58;19.00;99.90
10451;DHT22;5273;51.290;6.918;2023-07-24T06:29:25;19.20;99.90
10451;DHT22;5273;51.290;6.918;2023-07-24T06:31:52;19.40;99.90
10451;DHT22;5273;51.290;6.918;2023-07-24T06:34:19;19.70;99.90
10451;DHT22;5273;51.290;6.918;2023-07-24T06:36:47;20.00;99.90
10451;DHT22;5273;51.290;6.918;2023-07-24T06:39:15;20.20;99.90
10451;DHT22;5273;51.290;6.918;2023-07-24T06:41:42;20.10;99.90
10451;DHT22;5273;51.290;6.918;2023-07-24T06:44:09;20.80;99.90
10451;DHT22;5273;51.290;6.918;2023-07-24T06:46:36;20.90;99.90
10451;DHT22;5273;51.290;6.918;2023-07-24T06:49:03;21.10;99.90
10451;DHT22;5273;51.290;6.918;2023-07-24T06:51:29;21.30;99.90
10451;DHT22;5273;51.290;6.918;2023-07-24T06:53:58;21.70;99.90
10451;DHT22;5273;51.290;6.918;2023-07-24T06:56:24;22.10;99.90
10451;DHT22;5273;51.290;6.918;2023-07-24T06:58:51;22.30;99.90
10451;DHT22;5273;51.290;6.918;2023-07-24T07:01:18;22.40;99.90
10451;DHT22;5273;51.290;6.918;2023-07-24T07:03:45;22.40;99.90
10451;DHT22;5273;51.290;6.918;2023-07-24T07:06:12;22.30;99.90
10451;DHT22;5273;51.290;6.918;2023-07-24T07:08:39;22.20;99.90
10451;DHT22;5273;51.290;6.918;2023-07-24T07:11:07;22.10;99.90
10451;DHT22;5273;51.290;6.918;2023-07-24T07:13:34;21.90;99.90
10451;DHT22;5273;51.290;6.918;2023-07-24T07:16:01;21.40;99.90
10451;DHT22;5273;51.290;6.918;2023-07-24T07:18:28;21.60;99.90
10451;DHT22;5273;51.290;6.918;2023-07-24T07:20:55;21.40;99.90
10451;DHT22;5273;51.290;6.918;2023-07-24T07:23:21;21.40;99.90
10451;DHT22;5273;51.290;6.918;2023-07-24T07:25:50;21.30;99.90
10451;DHT22;5273;51.290;6.918;2023-07-24T07:28:18;21.30;99.90
10451;DHT22;5273;51.290;6.918;2023-07-24T07:30:45;21.20;99.90
10451;DHT22;5273;51.290;6.918;2023-07-24T07:33:12;21.10;99.90
10451;DHT22;5273;51.290;6.918;2023-07-24T07:35:39;20.90;99.90
10451;DHT22;5273;51.290;6.918;2023-07-24T07:38:06;20.90;99.90
10451;DHT22;5273;51.290;6.918;2023-07-24T07:40:32;20.80;99.90
10451;DHT22;5273;51.290;6.918;2023-07-24T07:42:59;20.80;99.90
10451;DHT22;5273;51.290;6.918;2023-07-24T07:45:27;20.80;99.90
10451;DHT22;5273;51.290;6.918;2023-07-24T07:47:54;20.80;99.90
10451;DHT22;5273;51.290;6.918;2023-07-24T07:50:21;20.80;99.90
10451;DHT22;5273;51.290;6.918;2023-07-24T07:52:49;20.80;99.90
10451;DHT22;5273;51.290;6.918;2023-07-24T07:55:17;20.80;99.90
10451;DHT22;5273;51.290;6.918;2023-07-24T07:57:44;20.90;99.90
10451;DHT22;5273;51.290;6.918;2023-07-24T08:00:12;21.00;99.90
10451;DHT22;5273;51.290;6.918;2023-07-24T08:02:40;21.10;99.90
10451;DHT22;5273;51.290;6.918;2023-07-24T08:05:08;21.20;99.90
10451;DHT22;5273;51.290;6.918;2023-07-24T08:07:35;21.20;99.90
10451;DHT22;5273;51.290;6.918;2023-07-24T08:10:02;21.40;99.90
10451;DHT22;5273;51.290;6.918;2023-07-24T08:12:28;21.30;99.90
10451;DHT22;5273;51.290;6.918;2023-07-24T08:14:56;21.30;99.90
10451;DHT22;5273;51.290;6.918;2023-07-24T08:17:23;21.30;99.90
10451;DHT22;5273;51.290;6.918;2023-07-24T08:19:51;21.20;99.90
10451;DHT22;5273;51.290;6.918;2023-07-24T08:22:18;21.00;99.90
10451;DHT22;5273;51.290;6.918;2023-07-24T08:24:45;21.20;99.90
10451;DHT22;5273;51.290;6.918;2023-07-24T08:27:12;21.30;99.90
10451;DHT22;5273;51.290;6.918;2023-07-24T08:29:39;21.40;99.90
10451;DHT22;5273;51.290;6.918;2023-07-24T08:32:06;21.40;99.90
10451;DHT22;5273;51.290;6.918;2023-07-24T08:34:33;21.50;99.90
10451;DHT22;5273;51.290;6.918;2023-07-24T08:37:02;21.60;99.90
10451;DHT22;5273;51.290;6.918;2023-07-24T08:39:29;21.80;99.90
10451;DHT22;5273;51.290;6.918;2023-07-24T08:41:57;22.20;99.90
10451;DHT22;5273;51.290;6.918;2023-07-24T08:44:24;22.60;99.90
10451;DHT22;5273;51.290;6.918;2023-07-24T08:46:52;22.70;99.90
10451;DHT22;5273;51.290;6.918;2023-07-24T08:49:19;23.00;99.90
10451;DHT22;5273;51.290;6.918;2023-07-24T08:51:47;22.90;99.90
10451;DHT22;5273;51.290;6.918;2023-07-24T08:54:15;22.80;99.90
10451;DHT22;5273;51.290;6.918;2023-07-24T08:56:43;22.60;99.90
10451;DHT22;5273;51.290;6.918;2023-07-24T08:59:12;22.40;99.90
10451;DHT22;5273;51.290;6.918;2023-07-24T09:01:39;22.20;99.90
10451;DHT22;5273;51.290;6.918;2023-07-24T09:04:06;22.20;99.90
10451;DHT22;5273;51.290;6.918;2023-07-24T09:06:33;22.20;99.90
10451;DHT22;5273;51.290;6.918;2023-07-24T09:09:00;22.00;99.90
10451;DHT22;5273;51.290;6.918;2023-07-24T09:11:29;21.80;99.90
10451;DHT22;5273;51.290;6.918;2023-07-24T09:13:56;21.70;99.90
10451;DHT22;5273;51.290;6.918;2023-07-24T09:16:24;21.60;99.90
10451;DHT22;5273;51.290;6.918;2023-07-24T09:18:52;21.40;99.90
10451;DHT22;5273;51.290;6.918;2023-07-24T09:21:28;21.30;99.90
10451;DHT22;5273;51.290;6.918;2023-07-24T09:23:55;21.20;99.90
10451;DHT22;5273;51.290;6.918;2023-07-24T09:26:22;21.20;99.90
10451;DHT22;5273;51.290;6.918;2023-07-24T09:28:53;21.10;99.90
10451;DHT22;5273;51.290;6.918;2023-07-24T09:31:20;20.70;99.90
10451;DHT22;5273;51.290;6.918;2023-07-24T09:33:47;21.10;99.90
10451;DHT22;5273;51.290;6.918;2023-07-24T09:36:14;21.00;99.90
10451;DHT22;5273;51.290;6.918;2023-07-24T09:38:41;21.00;99.90
10451;DHT22;5273;51.290;6.918;2023-07-24T09:41:08;21.00;99.90
10451;DHT22;5273;51.290;6.918;2023-07-24T09:43:37;20.90;99.90
10451;DHT22;5273;51.290;6.918;2023-07-24T09:46:06;21.00;99.90
10451;DHT22;5273;51.290;6.918;2023-07-24T09:48:33;21.00;99.90
10451;DHT22;5273;51.290;6.918;2023-07-24T09:51:01;21.10;99.90
10451;DHT22;5273;51.290;6.918;2023-07-24T09:53:32;21.10;99.90
10451;DHT22;5273;51.290;6.918;2023-07-24T09:56:02;21.20;99.90
10451;DHT22;5273;51.290;6.918;2023-07-24T09:58:30;21.50;99.90
10451;DHT22;5273;51.290;6.918;2023-07-24T10:00:58;22.20;99.90
10451;DHT22;5273;51.290;6.918;2023-07-24T10:03:28;22.80;99.90
10451;DHT22;5273;51.290;6.918;2023-07-24T10:05:55;23.40;99.90
10451;DHT22;5273;51.290;6.918;2023-07-24T10:08:22;23.80;99.90
10451;DHT22;5273;51.290;6.918;2023-07-24T10:10:51;24.30;99.90
10451;DHT22;5273;51.290;6.918;2023-07-24T10:13:19;24.90;98.90
10451;DHT22;5273;51.290;6.918;2023-07-24T10:15:48;24.80;97.50
10451;DHT22;5273;51.290;6.918;2023-07-24T10:18:16;24.80;98.00
10451;DHT22;5273;51.290;6.918;2023-07-24T10:20:45;24.90;98.30
10451;DHT22;5273;51.290;6.918;2023-07-24T10:23:16;24.90;97.60
10451;DHT22;5273;51.290;6.918;2023-07-24T10:25:45;24.70;96.50
10451;DHT22;5273;51.290;6.918;2023-07-24T10:28:12;24.30;97.50
10451;DHT22;5273;51.290;6.918;2023-07-24T10:30:42;24.20;98.40
10451;DHT22;5273;51.290;6.918;2023-07-24T10:33:10;24.00;98.80
10451;DHT22;5273;51.290;6.918;2023-07-24T10:35:38;23.90;98.60
10451;DHT22;5273;51.290;6.918;2023-07-24T10:38:07;23.80;98.30
10451;DHT22;5273;51.290;6.918;2023-07-24T10:40:34;23.80;98.50
10451;DHT22;5273;51.290;6.918;2023-07-24T10:43:04;23.70;98.90
10451;DHT22;5273;51.290;6.918;2023-07-24T10:45:42;23.50;98.60
10451;DHT22;5273;51.290;6.918;2023-07-24T10:48:12;23.20;98.70
10451;DHT22;5273;51.290;6.918;2023-07-24T10:50:40;22.90;98.70
10451;DHT22;5273;51.290;6.918;2023-07-24T10:53:08;22.70;99.70
10451;DHT22;5273;51.290;6.918;2023-07-24T10:55:35;22.60;99.90
10451;DHT22;5273;51.290;6.918;2023-07-24T10:58:02;22.50;99.90
10451;DHT22;5273;51.290;6.918;2023-07-24T11:00:29;22.40;99.90
10451;DHT22;5273;51.290;6.918;2023-07-24T11:02:56;22.40;99.90
10451;DHT22;5273;51.290;6.918;2023-07-24T11:05:23;22.30;99.90
10451;DHT22;5273;51.290;6.918;2023-07-24T11:07:50;22.50;99.90
10451;DHT22;5273;51.290;6.918;2023-07-24T11:10:20;22.80;99.90
10451;DHT22;5273;51.290;6.918;2023-07-24T11:12:47;23.00;99.90
10451;DHT22;5273;51.290;6.918;2023-07-24T11:15:14;23.20;99.90
10451;DHT22;5273;51.290;6.918;2023-07-24T11:17:42;23.20;99.90
10451;DHT22;5273;51.290;6.918;2023-07-24T11:20:11;23.20;99.90
10451;DHT22;5273;51.290;6.918;2023-07-24T11:22:39;23.20;99.90
10451;DHT22;5273;51.290;6.918;2023-07-24T11:25:06;23.20;99.90
10451;DHT22;5273;51.290;6.918;2023-07-24T11:27:38;23.30;99.90
10451;DHT22;5273;51.290;6.918;2023-07-24T11:30:08;23.00;99.90
10451;DHT22;5273;51.290;6.918;2023-07-24T11:32:35;22.90;99.90
10451;DHT22;5273;51.290;6.918;2023-07-24T11:35:02;22.80;99.90
10451;DHT22;5273;51.290;6.918;2023-07-24T11:37:29;22.60;99.90
10451;DHT22;5273;51.290;6.918;2023-07-24T11:39:57;22.80;99.90
10451;DHT22;5273;51.290;6.918;2023-07-24T11:42:25;22.30;99.90
10451;DHT22;5273;51.290;6.918;2023-07-24T11:44:54;22.00;99.90
10451;DHT22;5273;51.290;6.918;2023-07-24T11:47:21;20.80;99.90
10451;DHT22;5273;51.290;6.918;2023-07-24T11:49:58;19.90;99.90
10451;DHT22;5273;51.290;6.918;2023-07-24T11:52:25;18.30;99.90
10451;DHT22;5273;51.290;6.918;2023-07-24T11:54:56;17.70;99.90
10451;DHT22;5273;51.290;6.918;2023-07-24T11:57:27;17.40;99.90
10451;DHT22;5273;51.290;6.918;2023-07-24T11:59:55;17.20;99.90
10451;DHT22;5273;51.290;6.918;2023-07-24T12:02:25;17.00;99.90
10451;DHT22;5273;51.290;6.918;2023-07-24T12:04:58;16.80;99.90
10451;DHT22;5273;51.290;6.918;2023-07-24T12:07:30;16.40;99.90
10451;DHT22;5273;51.290;6.918;2023-07-24T12:09:58;16.10;99.90
10451;DHT22;5273;51.290;6.918;2023-07-24T12:12:24;15.90;99.90
10451;DHT22;5273;51.290;6.918;2023-07-24T12:14:52;15.80;99.90
10451;DHT22;5273;51.290;6.918;2023-07-24T12:17:20;15.70;99.90
10451;DHT22;5273;51.290;6.918;2023-07-24T12:19:47;15.70;99.90
10451;DHT22;5273;51.290;6.918;2023-07-24T12:22:15;15.60;99.90
10451;DHT22;5273;51.290;6.918;2023-07-24T12:24:43;15.70;99.90
10451;DHT22;5273;51.290;6.918;2023-07-24T12:27:10;15.80;99.90
10451;DHT22;5273;51.290;6.918;2023-07-24T12:29:37;16.10;99.90
10451;DHT22;5273;51.290;6.918;2023-07-24T12:32:05;16.40;99.90
10451;DHT22;5273;51.290;6.918;2023-07-24T12:34:33;16.50;99.90
10451;DHT22;5273;51.290;6.918;2023-07-24T12:37:00;16.80;99.90
10451;DHT22;5273;51.290;6.918;2023-07-24T12:39:27;16.90;99.90
10451;DHT22;5273;51.290;6.918;2023-07-24T12:41:54;17.10;99.90
10451;DHT22;5273;51.290;6.918;2023-07-24T12:44:21;17.30;99.90
10451;DHT22;5273;51.290;6.918;2023-07-24T12:46:47;17.60;99.90
10451;DHT22;5273;51.290;6.918;2023-07-24T12:49:14;17.70;99.90
10451;DHT22;5273;51.290;6.918;2023-07-24T12:51:42;18.00;99.90
10451;DHT22;5273;51.290;6.918;2023-07-24T12:54:10;18.10;99.90
10451;DHT22;5273;51.290;6.918;2023-07-24T12:56:36;18.30;99.90
10451;DHT22;5273;51.290;6.918;2023-07-24T12:59:03;18.30;99.90
10451;DHT22;5273;51.290;6.918;2023-07-24T13:01:30;18.60;99.90
10451;DHT22;5273;51.290;6.918;2023-07-24T13:03:57;18.80;99.90
10451;DHT22;5273;51.290;6.918;2023-07-24T13:06:24;18.90;99.90
10451;DHT22;5273;51.290;6.918;2023-07-24T13:08:55;19.00;99.90
10451;DHT22;5273;51.290;6.918;2023-07-24T13:11:22;19.20;99.90
10451;DHT22;5273;51.290;6.918;2023-07-24T13:13:49;19.60;99.90
10451;DHT22;5273;51.290;6.918;2023-07-24T13:16:16;19.40;99.90
10451;DHT22;5273;51.290;6.918;2023-07-24T13:18:43;19.50;99.90
10451;DHT22;5273;51.290;6.918;2023-07-24T13:21:10;19.60;99.90
10451;DHT22;5273;51.290;6.918;2023-07-24T13:23:37;19.80;99.90
10451;DHT22;5273;51.290;6.918;2023-07-24T13:26:05;20.00;99.90
10451;DHT22;5273;51.290;6.918;2023-07-24T13:28:33;20.00;99.90
10451;DHT22;5273;51.290;6.918;2023-07-24T13:31:11;19.90;99.90
10451;DHT22;5273;51.290;6.918;2023-07-24T13:33:38;19.90;99.90
10451;DHT22;5273;51.290;6.918;2023-07-24T13:36:05;20.00;99.90
10451;DHT22;5273;51.290;6.918;2023-07-24T13:38:32;20.00;99.90
10451;DHT22;5273;51.290;6.918;2023-07-24T13:40:59;20.20;99.90
10451;DHT22;5273;51.290;6.918;2023-07-24T13:43:27;20.30;99.90
10451;DHT22;5273;51.290;6.918;2023-07-24T13:45:54;20.40;99.90
10451;DHT22;5273;51.290;6.918;2023-07-24T13:48:21;20.50;99.90
10451;DHT22;5273;51.290;6.918;2023-07-24T13:50:49;20.30;99.90
10451;DHT22;5273;51.290;6.918;2023-07-24T13:53:16;20.40;99.90
10451;DHT22;5273;51.290;6.918;2023-07-24T13:55:43;20.70;99.90
10451;DHT22;5273;51.290;6.918;2023-07-24T13:58:10;20.90;99.90
10451;DHT22;5273;51.290;6.918;2023-07-24T14:00:38;21.00;99.90
10451;DHT22;5273;51.290;6.918;2023-07-24T14:03:05;21.00;99.90
10451;DHT22;5273;51.290;6.918;2023-07-24T14:05:32;21.00;99.90
10451;DHT22;5273;51.290;6.918;2023-07-24T14:08:00;20.90;99.90
10451;DHT22;5273;51.290;6.918;2023-07-24T14:10:27;20.90;99.90
10451;DHT22;5273;51.290;6.918;2023-07-24T14:12:54;20.80;99.90
10451;DHT22;5273;51.290;6.918;2023-07-24T14:15:21;20.70;99.90
10451;DHT22;5273;51.290;6.918;2023-07-24T14:17:49;20.70;99.90
10451;DHT22;5273;51.290;6.918;2023-07-24T14:20:16;20.60;99.90
10451;DHT22;5273;51.290;6.918;2023-07-24T14:22:43;20.60;99.90
10451;DHT22;5273;51.290;6.918;2023-07-24T14:25:10;20.70;99.90
10451;DHT22;5273;51.290;6.918;2023-07-24T14:27:37;20.70;99.90
10451;DHT22;5273;51.290;6.918;2023-07-24T14:30:05;20.40;99.90
10451;DHT22;5273;51.290;6.918;2023-07-24T14:32:32;20.60;99.90
10451;DHT22;5273;51.290;6.918;2023-07-24T14:35:01;20.90;99.90
10451;DHT22;5273;51.290;6.918;2023-07-24T14:37:28;20.50;99.90
10451;DHT22;5273;51.290;6.918;2023-07-24T14:39:56;20.00;99.90
10451;DHT22;5273;51.290;6.918;2023-07-24T14:42:23;20.30;99.90
10451;DHT22;5273;51.290;6.918;2023-07-24T14:44:50;20.00;99.90
10451;DHT22;5273;51.290;6.918;2023-07-24T14:47:17;19.70;99.90
10451;DHT22;5273;51.290;6.918;2023-07-24T14:49:44;19.60;99.90
10451;DHT22;5273;51.290;6.918;2023-07-24T14:52:13;19.50;99.90
10451;DHT22;5273;51.290;6.918;2023-07-24T14:54:39;19.40;99.90
10451;DHT22;5273;51.290;6.918;2023-07-24T14:57:06;19.40;99.90
10451;DHT22;5273;51.290;6.918;2023-07-24T14:59:36;19.40;99.90
10451;DHT22;5273;51.290;6.918;2023-07-24T15:02:04;19.40;99.90
10451;DHT22;5273;51.290;6.918;2023-07-24T15:04:31;19.50;99.90
10451;DHT22;5273;51.290;6.918;2023-07-24T15:06:57;19.50;99.90
10451;DHT22;5273;51.290;6.918;2023-07-24T15:09:26;19.60;99.90
10451;DHT22;5273;51.290;6.918;2023-07-24T15:11:56;19.70;99.90
10451;DHT22;5273;51.290;6.918;2023-07-24T15:14:23;19.80;99.90
10451;DHT22;5273;51.290;6.918;2023-07-24T15:16:51;20.00;99.90
10451;DHT22;5273;51.290;6.918;2023-07-24T15:19:18;20.10;99.90
10451;DHT22;5273;51.290;6.918;2023-07-24T15:21:44;20.30;99.90
10451;DHT22;5273;51.290;6.918;2023-07-24T15:24:12;20.30;99.90
10451;DHT22;5273;51.290;6.918;2023-07-24T15:26:44;20.30;99.90
10451;DHT22;5273;51.290;6.918;2023-07-24T15:29:11;20.20;99.90
10451;DHT22;5273;51.290;6.918;2023-07-24T15:31:39;20.00;99.90
10451;DHT22;5273;51.290;6.918;2023-07-24T15:34:06;19.90;99.90
10451;DHT22;5273;51.290;6.918;2023-07-24T15:36:34;19.90;99.90
10451;DHT22;5273;51.290;6.918;2023-07-24T15:39:02;19.90;99.90
10451;DHT22;5273;51.290;6.918;2023-07-24T15:41:29;19.90;99.90
10451;DHT22;5273;51.290;6.918;2023-07-24T15:43:58;19.90;99.90
10451;DHT22;5273;51.290;6.918;2023-07-24T15:46:25;20.20;99.90